createdAt,value
2023-05-25T00:01:24.474Z,84.41
2023-05-25T00:03:53.049Z,84.00
2023-05-25T00:06:20.504Z,84.13
2023-05-25T00:08:48.649Z,84.25
2023-05-25T00:11:19.462Z,84.39
2023-05-25T00:13:46.760Z,84.51
2023-05-25T00:16:14.033Z,84.45
2023-05-25T00:18:41.285Z,84.29
2023-05-25T00:21:08.596Z,84.32
2023-05-25T00:23:35.912Z,84.00
2023-05-25T00:26:03.451Z,83.91
2023-05-25T00:28:30.872Z,83.96
2023-05-25T00:30:58.913Z,83.93
2023-05-25T00:33:26.255Z,83.94
2023-05-25T00:35:54.098Z,83.97
2023-05-25T00:38:21.854Z,84.02
2023-05-25T00:40:49.336Z,83.82
2023-05-25T00:43:16.733Z,83.65
2023-05-25T00:45:44.174Z,83.62
2023-05-25T00:48:11.551Z,83.54
2023-05-25T00:50:42.615Z,83.53
2023-05-25T00:53:10.607Z,83.62
2023-05-25T00:56:02.456Z,83.65
2023-05-25T00:58:31.424Z,83.95
2023-05-25T01:00:58.784Z,84.08
2023-05-25T01:03:28.427Z,84.36
2023-05-25T01:05:56.109Z,84.54
2023-05-25T01:08:23.473Z,84.51
2023-05-25T01:10:52.823Z,84.57
2023-05-25T01:13:21.045Z,84.73
2023-05-25T01:15:48.452Z,84.97
2023-05-25T01:18:15.924Z,85.20
2023-05-25T01:21:13.290Z,85.33
2023-05-25T01:23:44.034Z,85.60
2023-05-25T01:26:13.605Z,85.89
2023-05-25T01:28:42.975Z,85.85
2023-05-25T01:31:10.568Z,85.96
2023-05-25T01:33:37.871Z,86.12
2023-05-25T01:36:05.421Z,86.28
2023-05-25T01:38:32.706Z,86.71
2023-05-25T01:42:30.552Z,87.13
2023-05-25T01:44:58.949Z,87.22
2023-05-25T01:47:48.293Z,87.50
2023-05-25T01:50:20.603Z,87.83
2023-05-25T01:52:58.332Z,87.91
2023-05-25T01:55:26.975Z,87.93
2023-05-25T01:57:58.093Z,87.85
2023-05-25T02:00:26.503Z,87.41
2023-05-25T02:02:53.934Z,87.36
2023-05-25T02:05:21.495Z,87.13
2023-05-25T02:07:48.794Z,87.10
2023-05-25T02:10:16.125Z,87.48
2023-05-25T02:12:43.370Z,87.49
2023-05-25T02:15:11.570Z,87.41
2023-05-25T02:17:38.812Z,87.30
2023-05-25T02:20:07.016Z,87.26
2023-05-25T02:22:34.426Z,86.91
2023-05-25T02:25:01.660Z,87.10
2023-05-25T02:27:30.144Z,87.13
2023-05-25T02:29:57.373Z,87.19
2023-05-25T02:32:25.844Z,87.25
2023-05-25T02:34:53.110Z,87.18
2023-05-25T02:37:21.164Z,87.16
2023-05-25T02:39:48.385Z,87.25
2023-05-25T02:42:15.665Z,87.55
2023-05-25T02:44:48.212Z,87.96
2023-05-25T02:47:16.130Z,88.10
2023-05-25T02:49:44.235Z,87.39
2023-05-25T02:52:11.507Z,86.38
2023-05-25T02:54:39.268Z,84.98
2023-05-25T02:57:08.408Z,83.59
2023-05-25T02:59:35.755Z,82.82
2023-05-25T03:02:03.706Z,82.20
2023-05-25T03:04:34.398Z,81.29
2023-05-25T03:07:02.220Z,79.50
2023-05-25T03:09:29.887Z,77.48
2023-05-25T03:11:57.685Z,75.29
2023-05-25T03:14:25.137Z,73.37
2023-05-25T03:16:59.876Z,71.34
2023-05-25T03:19:27.408Z,69.52
2023-05-25T03:21:54.753Z,67.97
2023-05-25T03:24:22.134Z,66.28
2023-05-25T03:26:49.399Z,64.83
2023-05-25T03:29:16.964Z,63.29
2023-05-25T03:31:44.361Z,61.97
2023-05-25T03:34:12.177Z,61.17
2023-05-25T03:36:39.673Z,60.82
2023-05-25T03:39:07.299Z,60.61
2023-05-25T03:41:34.575Z,60.57
2023-05-25T03:44:01.961Z,60.69
2023-05-25T03:46:29.481Z,60.89
2023-05-25T03:48:57.609Z,61.37
2023-05-25T03:51:24.929Z,61.98
2023-05-25T03:53:52.307Z,62.28
2023-05-25T03:56:19.598Z,62.85
2023-05-25T03:58:46.977Z,63.62
2023-05-25T04:01:14.777Z,64.12
2023-05-25T04:03:42.153Z,64.41
2023-05-25T04:06:09.840Z,64.64
2023-05-25T04:08:37.114Z,64.85
2023-05-25T04:11:05.566Z,64.97
2023-05-25T04:13:35.913Z,64.68
2023-05-25T04:16:03.583Z,64.60
2023-05-25T04:18:33.871Z,64.42
2023-05-25T04:21:01.363Z,64.50
2023-05-25T04:23:28.924Z,64.25
2023-05-25T04:25:56.680Z,63.86
2023-05-25T04:28:24.069Z,63.05
2023-05-25T04:30:57.215Z,62.20
2023-05-25T04:33:48.174Z,61.62
2023-05-25T04:36:38.682Z,61.16
2023-05-25T04:39:07.588Z,59.76
2023-05-25T04:41:39.347Z,57.53
2023-05-25T04:44:10.673Z,54.97
2023-05-25T04:46:48.517Z,52.94
2023-05-25T04:49:21.493Z,50.90
2023-05-25T04:51:48.961Z,48.98
2023-05-25T04:54:16.598Z,47.31
2023-05-25T04:56:44.135Z,45.53
2023-05-25T04:59:11.597Z,44.28
2023-05-25T05:01:42.159Z,43.30
2023-05-25T05:04:12.173Z,42.11
2023-05-25T05:06:39.621Z,41.12
2023-05-25T05:09:07.892Z,39.59
2023-05-25T05:11:35.127Z,38.88
2023-05-25T05:14:04.652Z,38.17
2023-05-25T05:16:35.293Z,36.98
2023-05-25T05:19:02.958Z,36.11
2023-05-25T05:21:30.480Z,35.82
2023-05-25T05:23:57.856Z,35.32
2023-05-25T05:26:25.221Z,35.22
2023-05-25T05:28:53.059Z,34.86
2023-05-25T05:31:21.500Z,34.74
2023-05-25T05:33:48.816Z,34.71
2023-05-25T05:36:16.980Z,34.58
2023-05-25T05:38:46.958Z,33.88
2023-05-25T05:41:14.558Z,33.56
2023-05-25T05:43:43.876Z,33.30
2023-05-25T05:46:11.218Z,32.60
2023-05-25T05:48:40.357Z,32.58
2023-05-25T05:51:07.791Z,33.01
2023-05-25T05:53:37.856Z,33.58
2023-05-25T05:56:05.931Z,34.09
2023-05-25T05:58:33.869Z,33.59
2023-05-25T06:01:02.023Z,34.14
2023-05-25T06:03:29.356Z,34.49
2023-05-25T06:05:56.624Z,34.71
2023-05-25T06:08:24.235Z,34.64
2023-05-25T06:10:51.729Z,34.72
2023-05-25T06:13:19.006Z,34.65
2023-05-25T06:15:46.593Z,34.11
2023-05-25T06:18:17.736Z,33.91
2023-05-25T06:20:45.102Z,33.93
2023-05-25T06:23:14.098Z,33.64
2023-05-25T06:25:41.691Z,32.96
2023-05-25T06:28:09.166Z,31.85
2023-05-25T06:30:36.423Z,31.21
2023-05-25T06:33:04.086Z,30.99
2023-05-25T06:35:31.446Z,30.72
2023-05-25T06:37:58.709Z,30.70
2023-05-25T06:40:26.073Z,29.61
2023-05-25T06:42:53.392Z,29.08
2023-05-25T06:45:38.004Z,28.99
2023-05-25T06:48:05.724Z,29.59
2023-05-25T06:50:33.261Z,29.60
2023-05-25T06:53:00.737Z,29.89
2023-05-25T06:55:28.102Z,30.05
2023-05-25T06:57:56.174Z,29.96
2023-05-25T07:00:23.528Z,30.56
2023-05-25T07:02:50.989Z,30.62
2023-05-25T07:05:18.385Z,30.47
2023-05-25T07:07:45.758Z,30.17
2023-05-25T07:10:13.036Z,29.70
2023-05-25T07:12:40.312Z,29.18
2023-05-25T07:15:08.237Z,29.31
2023-05-25T07:17:36.723Z,29.70
2023-05-25T07:20:05.879Z,29.52
2023-05-25T07:22:33.180Z,29.26
2023-05-25T07:25:00.458Z,29.46
2023-05-25T07:27:27.912Z,29.65
2023-05-25T07:29:55.165Z,30.37
2023-05-25T07:32:22.484Z,30.66
2023-05-25T07:34:50.185Z,30.90
2023-05-25T07:37:17.427Z,30.47
2023-05-25T07:39:44.736Z,29.60
2023-05-25T07:42:12.022Z,29.48
2023-05-25T07:44:39.462Z,29.39
2023-05-25T07:47:07.303Z,28.99
2023-05-25T07:49:34.982Z,28.90
2023-05-25T07:52:04.563Z,29.19
2023-05-25T07:54:32.392Z,28.93
2023-05-25T07:56:59.675Z,28.81
2023-05-25T07:59:26.911Z,28.76
2023-05-25T08:01:54.262Z,27.82
2023-05-25T08:04:21.587Z,27.72
2023-05-25T08:06:48.894Z,27.81
2023-05-25T08:09:16.145Z,28.27
2023-05-25T08:11:45.520Z,28.25
2023-05-25T08:14:13.056Z,27.81
2023-05-25T08:16:40.661Z,27.32
2023-05-25T08:19:07.878Z,27.00
2023-05-25T08:21:35.256Z,27.36
2023-05-25T08:24:04.253Z,27.59
2023-05-25T08:26:45.345Z,27.14
2023-05-25T08:29:19.405Z,27.82
2023-05-25T08:31:49.647Z,28.14
2023-05-25T08:34:18.216Z,27.74
2023-05-25T08:36:46.122Z,27.27
2023-05-25T08:39:13.518Z,27.33
2023-05-25T08:41:44.481Z,27.02
2023-05-25T08:44:11.769Z,27.24
2023-05-25T08:46:39.036Z,26.61
2023-05-25T08:49:13.657Z,26.78
2023-05-25T08:51:54.199Z,26.28
2023-05-25T08:54:39.547Z,26.57
2023-05-25T08:57:20.883Z,26.20
2023-05-25T08:59:52.390Z,25.73
2023-05-25T09:02:52.322Z,25.23
2023-05-25T09:05:19.830Z,26.07
2023-05-25T09:07:47.195Z,25.98
2023-05-25T09:10:14.520Z,26.24
2023-05-25T09:12:41.834Z,26.60
2023-05-25T09:15:12.510Z,27.05
2023-05-25T09:17:41.402Z,27.22
2023-05-25T09:20:10.882Z,27.57
2023-05-25T09:22:38.221Z,27.63
2023-05-25T09:25:06.806Z,27.53
2023-05-25T09:27:35.503Z,27.33
2023-05-25T09:30:03.485Z,26.99
2023-05-25T09:32:30.938Z,26.71
2023-05-25T09:35:14.581Z,26.25
2023-05-25T09:37:42.247Z,25.75
2023-05-25T09:40:10.950Z,24.49
2023-05-25T09:42:38.424Z,24.20
2023-05-25T09:45:06.393Z,24.44
2023-05-25T09:47:36.070Z,25.11
2023-05-25T09:50:03.901Z,24.95
2023-05-25T09:52:31.509Z,24.58
2023-05-25T09:54:58.741Z,24.42
2023-05-25T09:57:26.132Z,24.05
2023-05-25T09:59:53.537Z,23.19
2023-05-25T10:02:20.779Z,23.01
2023-05-25T10:04:48.648Z,22.87
2023-05-25T10:07:16.274Z,22.37
2023-05-25T10:09:43.532Z,22.55
2023-05-25T10:12:10.733Z,20.98
2023-05-25T10:14:38.346Z,20.72
2023-05-25T10:17:09.120Z,20.88
2023-05-25T10:19:41.408Z,21.42
2023-05-25T10:22:14.203Z,21.32
2023-05-25T10:24:56.477Z,20.84
2023-05-25T10:30:12.424Z,21.64
2023-05-25T10:32:39.858Z,22.25
2023-05-25T10:35:07.707Z,22.12
2023-05-25T10:37:35.817Z,22.46
2023-05-25T10:40:03.912Z,22.39
2023-05-25T10:42:31.245Z,22.09
2023-05-25T10:44:58.783Z,21.94
2023-05-25T10:47:26.135Z,21.77
2023-05-25T10:49:54.748Z,21.75
2023-05-25T10:52:22.095Z,20.46
2023-05-25T10:54:49.356Z,20.81
2023-05-25T10:57:23.752Z,21.45
2023-05-25T10:59:52.030Z,21.12
2023-05-25T11:02:25.174Z,20.27
2023-05-25T11:05:12.382Z,20.65
2023-05-25T11:08:01.361Z,20.89
2023-05-25T11:10:49.463Z,22.04
2023-05-25T11:13:23.804Z,25.92
2023-05-25T11:16:18.820Z,27.42
2023-05-25T11:19:01.956Z,29.20
2023-05-25T11:21:30.486Z,30.61
2023-05-25T11:24:04.463Z,31.56
2023-05-25T11:26:35.071Z,32.48
2023-05-25T11:29:12.187Z,33.35
2023-05-25T11:31:43.431Z,34.21
2023-05-25T11:34:11.960Z,34.88
2023-05-25T11:36:39.664Z,35.64
2023-05-25T11:39:14.201Z,36.02
2023-05-25T11:41:48.360Z,36.65
2023-05-25T11:44:15.603Z,36.19
2023-05-25T11:46:43.937Z,37.02
2023-05-25T11:49:11.218Z,37.10
2023-05-25T11:51:38.761Z,36.97
2023-05-25T11:54:06.283Z,37.11
2023-05-25T11:56:35.939Z,36.35
2023-05-25T11:59:03.504Z,36.44
2023-05-25T12:01:34.370Z,36.69
2023-05-25T12:04:05.035Z,36.60
2023-05-25T12:06:36.998Z,36.23
2023-05-25T12:09:10.190Z,36.28
2023-05-25T12:11:45.296Z,36.49
2023-05-25T12:14:12.563Z,36.57
2023-05-25T12:16:41.041Z,36.57
2023-05-25T12:19:08.604Z,36.16
2023-05-25T12:21:39.044Z,35.98
2023-05-25T12:24:07.007Z,35.98
2023-05-25T12:26:34.448Z,34.91
2023-05-25T12:29:03.618Z,35.25
2023-05-25T12:31:35.737Z,34.59
2023-05-25T12:34:06.040Z,35.00
2023-05-25T12:36:40.483Z,35.05
2023-05-25T12:39:08.049Z,35.37
2023-05-25T12:41:53.353Z,35.26
2023-05-25T12:44:26.896Z,34.55
2023-05-25T12:46:55.604Z,34.87
2023-05-25T12:49:27.661Z,34.90
2023-05-25T12:51:55.265Z,35.40
2023-05-25T12:54:44.808Z,35.48
2023-05-25T12:57:16.147Z,35.78
2023-05-25T12:59:44.992Z,35.40
2023-05-25T13:02:13.004Z,35.87
2023-05-25T13:04:41.171Z,35.88
2023-05-25T13:07:08.728Z,35.35
2023-05-25T13:09:36.568Z,35.11
2023-05-25T13:12:04.516Z,34.90
2023-05-25T13:14:31.744Z,34.84
2023-05-25T13:16:59.121Z,34.34
2023-05-25T13:19:26.345Z,34.78
2023-05-25T13:21:55.823Z,34.55
2023-05-25T13:24:23.244Z,34.94
2023-05-25T13:26:51.128Z,34.29
2023-05-25T13:29:18.594Z,34.69
2023-05-25T13:31:46.750Z,34.42
2023-05-25T13:34:14.190Z,34.63
2023-05-25T13:36:41.498Z,33.79
2023-05-25T13:39:13.249Z,33.73
2023-05-25T13:41:41.171Z,33.87
2023-05-25T13:44:08.566Z,34.44
2023-05-25T13:46:37.672Z,34.41
2023-05-25T13:49:05.175Z,34.46
2023-05-25T13:51:35.457Z,34.64
2023-05-25T13:54:03.182Z,34.98
2023-05-25T13:56:30.452Z,35.81
2023-05-25T14:00:34.311Z,35.33
2023-05-25T14:03:01.949Z,36.10
2023-05-25T14:05:30.319Z,35.53
2023-05-25T14:08:00.786Z,32.79
2023-05-25T14:10:28.346Z,32.42
2023-05-25T14:12:55.670Z,33.25
2023-05-25T14:15:23.046Z,33.62
2023-05-25T14:17:50.558Z,33.33
2023-05-25T14:20:25.329Z,33.57
2023-05-25T14:22:52.858Z,33.98
2023-05-25T14:25:20.153Z,34.97
2023-05-25T14:27:47.341Z,35.75
2023-05-25T14:30:14.885Z,35.34
2023-05-25T14:32:42.843Z,35.40
2023-05-25T14:35:10.837Z,35.55
2023-05-25T14:37:38.059Z,35.58
2023-05-25T14:40:06.142Z,36.26
2023-05-25T14:42:33.369Z,36.49
2023-05-25T14:45:00.881Z,36.50
2023-05-25T14:47:28.237Z,36.52
2023-05-25T14:49:55.757Z,36.45
2023-05-25T14:52:23.034Z,36.97
2023-05-25T14:54:50.416Z,36.74
2023-05-25T14:57:17.766Z,36.90
2023-05-25T14:59:45.048Z,37.40
2023-05-25T15:02:12.374Z,38.02
2023-05-25T15:04:39.648Z,38.71
2023-05-25T15:07:06.984Z,39.18
2023-05-25T15:09:34.265Z,39.65
2023-05-25T15:12:02.071Z,40.54
2023-05-25T15:14:29.358Z,40.73
2023-05-25T15:16:57.166Z,41.29
2023-05-25T15:19:24.356Z,41.47
2023-05-25T15:21:51.667Z,41.56
2023-05-25T15:24:18.918Z,41.12
2023-05-25T15:26:46.540Z,41.27
2023-05-25T15:29:13.837Z,41.41
2023-05-25T15:31:41.432Z,41.70
2023-05-25T15:34:11.222Z,41.78
2023-05-25T15:36:38.454Z,42.16
2023-05-25T15:39:08.905Z,42.43
2023-05-25T15:41:36.381Z,42.88
2023-05-25T15:44:08.120Z,43.22
2023-05-25T15:46:36.174Z,43.59
2023-05-25T15:49:10.699Z,43.74
2023-05-25T15:51:39.829Z,43.63
2023-05-25T15:54:08.050Z,43.43
2023-05-25T15:56:35.958Z,43.73
2023-05-25T15:59:03.685Z,43.89
2023-05-25T16:01:34.240Z,44.14
2023-05-25T16:04:01.671Z,43.79
2023-05-25T16:06:29.284Z,43.53
2023-05-25T16:08:58.641Z,43.06
2023-05-25T16:11:28.013Z,43.52
2023-05-25T16:13:55.448Z,43.77
2023-05-25T16:16:24.316Z,44.15
2023-05-25T16:18:51.820Z,44.49
2023-05-25T16:21:19.057Z,44.29
2023-05-25T16:23:46.313Z,44.22
2023-05-25T16:26:13.512Z,44.10
2023-05-25T16:28:40.936Z,44.09
2023-05-25T16:31:08.223Z,44.18
2023-05-25T16:33:35.530Z,44.63
2023-05-25T16:36:02.901Z,44.89
2023-05-25T16:38:30.455Z,45.33
2023-05-25T16:40:57.729Z,45.81
2023-05-25T16:43:25.222Z,46.02
2023-05-25T16:45:52.661Z,46.04
2023-05-25T16:48:22.434Z,46.52
2023-05-25T16:50:50.501Z,46.60
2023-05-25T16:53:17.745Z,47.03
2023-05-25T16:55:45.137Z,47.32
2023-05-25T16:58:12.504Z,47.13
2023-05-25T17:00:40.185Z,47.05
2023-05-25T17:03:07.501Z,47.31
2023-05-25T17:05:34.799Z,47.60
2023-05-25T17:08:02.175Z,47.81
2023-05-25T17:10:29.367Z,47.80
2023-05-25T17:12:56.725Z,48.09
2023-05-25T17:15:24.044Z,48.52
2023-05-25T17:17:51.472Z,48.92
2023-05-25T17:20:18.732Z,49.06
2023-05-25T17:22:46.640Z,49.22
2023-05-25T17:25:13.866Z,49.41
2023-05-25T17:27:41.134Z,49.95
2023-05-25T17:30:09.255Z,50.20
2023-05-25T17:32:36.595Z,50.63
2023-05-25T17:35:04.216Z,51.25
2023-05-25T17:37:32.293Z,51.80
2023-05-25T17:39:59.535Z,52.08
2023-05-25T17:42:26.812Z,52.25
2023-05-25T17:44:54.049Z,52.30
2023-05-25T17:47:21.303Z,52.35
2023-05-25T17:49:48.526Z,52.49
2023-05-25T17:52:15.879Z,52.68
2023-05-25T17:54:43.086Z,52.81
2023-05-25T17:57:10.307Z,52.72
2023-05-25T17:59:37.598Z,52.65
2023-05-25T18:02:05.151Z,52.86
2023-05-25T18:04:32.404Z,53.15
2023-05-25T18:06:59.664Z,53.20
2023-05-25T18:09:26.881Z,53.21
2023-05-25T18:11:55.360Z,53.44
2023-05-25T18:14:22.693Z,53.76
2023-05-25T18:16:50.058Z,53.93
2023-05-25T18:19:20.187Z,54.40
2023-05-25T18:21:47.552Z,54.92
2023-05-25T18:24:14.783Z,55.52
2023-05-25T18:26:42.317Z,56.25
2023-05-25T18:29:09.741Z,56.92
2023-05-25T18:31:37.081Z,56.97
2023-05-25T18:34:06.776Z,56.96
2023-05-25T18:36:34.091Z,57.00
2023-05-25T18:39:01.290Z,57.05
2023-05-25T18:41:28.559Z,57.16
2023-05-25T18:43:55.863Z,57.52
2023-05-25T18:46:24.486Z,57.63
2023-05-25T18:48:51.857Z,57.55
2023-05-25T18:51:22.999Z,57.25
2023-05-25T18:53:50.245Z,57.14
2023-05-25T18:56:17.445Z,57.25
2023-05-25T18:58:44.972Z,57.53
2023-05-25T19:01:12.234Z,57.64
2023-05-25T19:03:39.522Z,57.70
2023-05-25T19:06:07.150Z,57.99
2023-05-25T19:08:34.372Z,58.18
2023-05-25T19:11:01.589Z,58.43
2023-05-25T19:13:29.335Z,58.72
2023-05-25T19:15:56.794Z,59.19
2023-05-25T19:18:24.083Z,59.34
2023-05-25T19:20:51.472Z,59.58
2023-05-25T19:23:19.494Z,59.93
2023-05-25T19:25:47.072Z,60.26
2023-05-25T19:28:14.652Z,60.41
2023-05-25T19:30:41.915Z,60.57
2023-05-25T19:33:09.324Z,60.83
2023-05-25T19:35:37.207Z,61.05
2023-05-25T19:38:04.557Z,61.45
2023-05-25T19:40:32.203Z,62.02
2023-05-25T19:42:59.412Z,62.66
2023-05-25T19:45:26.697Z,63.14
2023-05-25T19:47:54.533Z,63.54
2023-05-25T19:50:21.835Z,63.76
2023-05-25T19:52:49.056Z,63.82
2023-05-25T19:55:16.243Z,63.92
2023-05-25T19:57:43.505Z,64.14
2023-05-25T20:00:24.944Z,64.50
2023-05-25T20:02:53.982Z,64.99
2023-05-25T20:05:21.338Z,65.48
2023-05-25T20:07:50.765Z,65.76
2023-05-25T20:10:18.133Z,66.08
2023-05-25T20:12:45.441Z,66.23
2023-05-25T20:15:12.764Z,66.10
2023-05-25T20:17:40.128Z,66.00
2023-05-25T20:20:07.939Z,65.88
2023-05-25T20:22:35.456Z,66.00
2023-05-25T20:25:02.696Z,66.15
2023-05-25T20:27:29.941Z,66.25
2023-05-25T20:29:57.468Z,66.23
2023-05-25T20:32:24.820Z,66.53
2023-05-25T20:34:52.093Z,66.64
2023-05-25T20:37:19.381Z,66.90
2023-05-25T20:39:46.644Z,67.10
2023-05-25T20:42:14.128Z,67.30
2023-05-25T20:44:41.385Z,67.52
2023-05-25T20:47:08.664Z,67.50
2023-05-25T20:49:36.001Z,68.08
2023-05-25T20:52:03.417Z,68.60
2023-05-25T20:54:30.763Z,69.07
2023-05-25T20:56:58.074Z,69.45
2023-05-25T20:59:25.441Z,69.71
2023-05-25T21:01:52.754Z,69.84
2023-05-25T21:04:20.021Z,69.97
2023-05-25T21:06:47.270Z,70.15
2023-05-25T21:09:14.573Z,69.91
2023-05-25T21:11:41.800Z,70.09
2023-05-25T21:14:09.045Z,69.89
2023-05-25T21:16:36.391Z,70.09
2023-05-25T21:19:03.665Z,69.80
2023-05-25T21:21:33.916Z,69.95
2023-05-25T21:24:01.628Z,69.90
2023-05-25T21:26:29.820Z,70.01
2023-05-25T21:28:57.485Z,70.06
2023-05-25T21:31:25.012Z,69.92
2023-05-25T21:33:53.222Z,69.84
2023-05-25T21:36:20.810Z,69.87
2023-05-25T21:38:48.110Z,69.72
2023-05-25T21:41:15.497Z,69.95
2023-05-25T21:43:42.745Z,70.03
2023-05-25T21:46:10.069Z,70.67
2023-05-25T21:48:37.521Z,71.19
2023-05-25T21:51:05.536Z,71.88
2023-05-25T21:53:32.955Z,72.28
2023-05-25T21:56:00.240Z,72.88
2023-05-25T21:58:27.531Z,73.47
2023-05-25T22:00:54.742Z,73.91
2023-05-25T22:03:22.228Z,74.39
2023-05-25T22:05:49.457Z,74.66
2023-05-25T22:08:16.722Z,74.85
2023-05-25T22:10:43.932Z,75.09
2023-05-25T22:13:11.148Z,75.32
2023-05-25T22:15:38.456Z,75.60
2023-05-25T22:18:06.329Z,75.71
2023-05-25T22:20:33.726Z,75.63
2023-05-25T22:23:01.061Z,75.80
2023-05-25T22:25:28.299Z,76.04
2023-05-25T22:27:56.042Z,76.34
2023-05-25T22:30:23.351Z,76.51
2023-05-25T22:32:50.694Z,76.67
2023-05-25T22:35:17.919Z,76.87
2023-05-25T22:37:45.270Z,77.01
2023-05-25T22:40:12.932Z,77.03
2023-05-25T22:42:40.535Z,77.13
2023-05-25T22:45:08.376Z,77.30
2023-05-25T22:47:35.916Z,77.44
2023-05-25T22:50:03.194Z,77.88
2023-05-25T22:52:30.466Z,77.99
2023-05-25T22:54:57.721Z,78.24
2023-05-25T22:57:25.059Z,78.35
2023-05-25T22:59:52.308Z,78.60
2023-05-25T23:02:19.551Z,78.84
2023-05-25T23:04:46.948Z,78.78
2023-05-25T23:07:14.233Z,79.32
2023-05-25T23:09:41.438Z,79.54
2023-05-25T23:12:08.719Z,80.03
2023-05-25T23:14:36.485Z,80.39
2023-05-25T23:17:03.804Z,80.52
2023-05-25T23:19:31.034Z,80.98
2023-05-25T23:21:58.714Z,81.45
2023-05-25T23:24:25.934Z,81.88
2023-05-25T23:26:53.264Z,82.19
2023-05-25T23:29:20.473Z,82.57
2023-05-25T23:31:47.733Z,82.94
2023-05-25T23:34:15.601Z,83.29
2023-05-25T23:36:42.894Z,83.30
2023-05-25T23:39:10.262Z,83.55
2023-05-25T23:41:37.566Z,83.48
2023-05-25T23:44:04.844Z,83.59
2023-05-25T23:46:32.180Z,83.59
2023-05-25T23:48:59.577Z,83.63
2023-05-25T23:51:30.246Z,83.69
2023-05-25T23:53:59.170Z,83.36
2023-05-25T23:56:28.396Z,83.12
2023-05-25T23:58:57.396Z,83.04
